Terminal Aerodrome Forecast
Issued by NWS Goodland, KS

Home | Current Version | Previous Version | Text Only | Print | Product List | Glossary On
Versions: 1 2 3 4 5 6 7 8 9 10 11
043
FTUS43 KGLD 061138
TAFGLD
TAF
KGLD 061138Z 0612/0712 26013KT P6SM SCT300
     FM070000 24009KT P6SM SCT200
     FM070800 32013KT P6SM SCT150=

USA.gov is the U.S. government's official web portal to all federal, state and local government web resources and services.